sensor_id;sensor_type;location;lat;lon;timestamp;pressure;altitude;pressure_sealevel;temperature;humidity
21545;BME280;10933;50.754;11.508;2023-05-25T00:00:25;100441.00;;;3.78;100.00
21545;BME280;10933;50.754;11.508;2023-05-25T00:02:52;100439.25;;;3.71;100.00
21545;BME280;10933;50.754;11.508;2023-05-25T00:05:19;100436.88;;;3.61;100.00
21545;BME280;10933;50.754;11.508;2023-05-25T00:07:46;100435.47;;;3.65;100.00
21545;BME280;10933;50.754;11.508;2023-05-25T00:10:12;100443.28;;;3.67;100.00
21545;BME280;10933;50.754;11.508;2023-05-25T00:12:38;100447.59;;;3.68;100.00
21545;BME280;10933;50.754;11.508;2023-05-25T00:15:05;100440.91;;;3.57;100.00
21545;BME280;10933;50.754;11.508;2023-05-25T00:17:32;100446.25;;;3.57;100.00
21545;BME280;10933;50.754;11.508;2023-05-25T00:19:59;100448.75;;;3.59;100.00
21545;BME280;10933;50.754;11.508;2023-05-25T00:22:35;100447.44;;;3.54;100.00
21545;BME280;10933;50.754;11.508;2023-05-25T00:25:02;100446.97;;;3.51;100.00
21545;BME280;10933;50.754;11.508;2023-05-25T00:27:29;100443.84;;;3.47;100.00
21545;BME280;10933;50.754;11.508;2023-05-25T00:29:55;100445.25;;;3.43;100.00
21545;BME280;10933;50.754;11.508;2023-05-25T00:32:22;100444.56;;;3.41;100.00
21545;BME280;10933;50.754;11.508;2023-05-25T00:34:48;100452.94;;;3.38;100.00
21545;BME280;10933;50.754;11.508;2023-05-25T00:37:14;100439.78;;;3.37;100.00
21545;BME280;10933;50.754;11.508;2023-05-25T00:39:41;100442.19;;;3.32;100.00
21545;BME280;10933;50.754;11.508;2023-05-25T00:42:07;100444.66;;;3.33;100.00
21545;BME280;10933;50.754;11.508;2023-05-25T00:44:33;100434.00;;;3.33;100.00
21545;BME280;10933;50.754;11.508;2023-05-25T00:47:00;100436.03;;;3.31;100.00
21545;BME280;10933;50.754;11.508;2023-05-25T00:49:30;100440.53;;;3.31;100.00
21545;BME280;10933;50.754;11.508;2023-05-25T00:51:57;100432.03;;;3.27;100.00
21545;BME280;10933;50.754;11.508;2023-05-25T00:54:23;100425.81;;;3.20;100.00
21545;BME280;10933;50.754;11.508;2023-05-25T00:56:56;100429.63;;;3.17;100.00
21545;BME280;10933;50.754;11.508;2023-05-25T00:59:31;100428.47;;;3.20;100.00
21545;BME280;10933;50.754;11.508;2023-05-25T01:02:03;100439.13;;;3.20;100.00
21545;BME280;10933;50.754;11.508;2023-05-25T01:04:35;100438.50;;;3.18;100.00
21545;BME280;10933;50.754;11.508;2023-05-25T01:07:04;100441.88;;;3.12;100.00
21545;BME280;10933;50.754;11.508;2023-05-25T01:09:34;100439.19;;;3.12;100.00
21545;BME280;10933;50.754;11.508;2023-05-25T01:12:02;100445.00;;;3.15;100.00
21545;BME280;10933;50.754;11.508;2023-05-25T01:14:29;100447.56;;;3.09;100.00
21545;BME280;10933;50.754;11.508;2023-05-25T01:16:56;100447.19;;;3.12;100.00
21545;BME280;10933;50.754;11.508;2023-05-25T01:19:24;100443.88;;;3.10;100.00
21545;BME280;10933;50.754;11.508;2023-05-25T01:27:15;100442.66;;;2.98;100.00
21545;BME280;10933;50.754;11.508;2023-05-25T01:29:46;100443.53;;;2.90;100.00
21545;BME280;10933;50.754;11.508;2023-05-25T01:32:13;100439.78;;;2.84;100.00
21545;BME280;10933;50.754;11.508;2023-05-25T01:34:41;100441.16;;;2.80;100.00
21545;BME280;10933;50.754;11.508;2023-05-25T01:37:08;100443.09;;;2.86;100.00
21545;BME280;10933;50.754;11.508;2023-05-25T01:39:34;100441.88;;;2.89;100.00
21545;BME280;10933;50.754;11.508;2023-05-25T01:42:00;100447.13;;;2.82;100.00
21545;BME280;10933;50.754;11.508;2023-05-25T01:44:27;100436.78;;;2.79;100.00
21545;BME280;10933;50.754;11.508;2023-05-25T01:47:02;100441.66;;;2.76;100.00
21545;BME280;10933;50.754;11.508;2023-05-25T01:49:45;100442.97;;;2.80;100.00
21545;BME280;10933;50.754;11.508;2023-05-25T01:54:49;100445.25;;;2.68;100.00
21545;BME280;10933;50.754;11.508;2023-05-25T01:57:18;100443.59;;;2.67;100.00
21545;BME280;10933;50.754;11.508;2023-05-25T01:59:46;100449.56;;;2.69;100.00
21545;BME280;10933;50.754;11.508;2023-05-25T02:02:14;100442.84;;;2.73;100.00
21545;BME280;10933;50.754;11.508;2023-05-25T02:04:43;100441.16;;;2.80;100.00
21545;BME280;10933;50.754;11.508;2023-05-25T02:07:09;100447.81;;;2.76;100.00
21545;BME280;10933;50.754;11.508;2023-05-25T02:09:35;100449.47;;;2.77;100.00
21545;BME280;10933;50.754;11.508;2023-05-25T02:12:02;100445.34;;;2.75;100.00
21545;BME280;10933;50.754;11.508;2023-05-25T02:14:28;100452.63;;;2.58;100.00
21545;BME280;10933;50.754;11.508;2023-05-25T02:16:54;100454.25;;;2.67;100.00
21545;BME280;10933;50.754;11.508;2023-05-25T02:19:23;100451.84;;;2.72;100.00
21545;BME280;10933;50.754;11.508;2023-05-25T02:21:49;100461.91;;;2.62;100.00
21545;BME280;10933;50.754;11.508;2023-05-25T02:24:15;100456.94;;;2.59;100.00
21545;BME280;10933;50.754;11.508;2023-05-25T02:26:43;100455.16;;;2.74;100.00
21545;BME280;10933;50.754;11.508;2023-05-25T02:29:09;100456.53;;;2.70;100.00
21545;BME280;10933;50.754;11.508;2023-05-25T02:31:36;100442.13;;;2.79;100.00
21545;BME280;10933;50.754;11.508;2023-05-25T02:34:02;100443.59;;;2.67;100.00
21545;BME280;10933;50.754;11.508;2023-05-25T02:36:28;100457.88;;;2.66;100.00
21545;BME280;10933;50.754;11.508;2023-05-25T02:38:55;100453.56;;;2.65;100.00
21545;BME280;10933;50.754;11.508;2023-05-25T02:41:21;100457.31;;;2.56;100.00
21545;BME280;10933;50.754;11.508;2023-05-25T02:43:49;100456.63;;;2.54;100.00
21545;BME280;10933;50.754;11.508;2023-05-25T02:46:15;100451.38;;;2.46;100.00
21545;BME280;10933;50.754;11.508;2023-05-25T02:48:42;100449.94;;;2.35;100.00
21545;BME280;10933;50.754;11.508;2023-05-25T02:51:08;100452.41;;;2.36;100.00
21545;BME280;10933;50.754;11.508;2023-05-25T02:53:34;100454.63;;;2.33;100.00
21545;BME280;10933;50.754;11.508;2023-05-25T02:56:02;100453.13;;;2.30;100.00
21545;BME280;10933;50.754;11.508;2023-05-25T02:58:29;100454.28;;;2.28;100.00
21545;BME280;10933;50.754;11.508;2023-05-25T03:00:56;100455.81;;;2.30;100.00
21545;BME280;10933;50.754;11.508;2023-05-25T03:03:25;100461.41;;;2.35;100.00
21545;BME280;10933;50.754;11.508;2023-05-25T03:05:52;100463.09;;;2.28;100.00
21545;BME280;10933;50.754;11.508;2023-05-25T03:08:18;100474.91;;;2.34;100.00
21545;BME280;10933;50.754;11.508;2023-05-25T03:10:45;100473.09;;;2.26;100.00
21545;BME280;10933;50.754;11.508;2023-05-25T03:13:11;100475.03;;;2.41;100.00
21545;BME280;10933;50.754;11.508;2023-05-25T03:15:37;100471.03;;;2.45;100.00
21545;BME280;10933;50.754;11.508;2023-05-25T03:18:05;100474.19;;;2.40;100.00
21545;BME280;10933;50.754;11.508;2023-05-25T03:20:31;100475.03;;;2.41;100.00
21545;BME280;10933;50.754;11.508;2023-05-25T03:22:58;100475.75;;;2.34;100.00
21545;BME280;10933;50.754;11.508;2023-05-25T03:25:24;100467.78;;;2.26;100.00
21545;BME280;10933;50.754;11.508;2023-05-25T03:27:53;100477.28;;;2.29;100.00
21545;BME280;10933;50.754;11.508;2023-05-25T03:30:22;100487.06;;;2.28;100.00
21545;BME280;10933;50.754;11.508;2023-05-25T03:32:48;100488.06;;;2.27;100.00
21545;BME280;10933;50.754;11.508;2023-05-25T03:35:14;100485.09;;;2.30;100.00
21545;BME280;10933;50.754;11.508;2023-05-25T03:37:41;100481.59;;;2.30;100.00
21545;BME280;10933;50.754;11.508;2023-05-25T03:40:07;100487.56;;;2.32;100.00
21545;BME280;10933;50.754;11.508;2023-05-25T03:42:34;100498.88;;;2.34;100.00
21545;BME280;10933;50.754;11.508;2023-05-25T03:45:00;100489.69;;;2.36;100.00
21545;BME280;10933;50.754;11.508;2023-05-25T03:47:27;100493.00;;;2.39;100.00
21545;BME280;10933;50.754;11.508;2023-05-25T03:49:53;100492.31;;;2.45;100.00
21545;BME280;10933;50.754;11.508;2023-05-25T03:52:19;100489.84;;;2.66;100.00
21545;BME280;10933;50.754;11.508;2023-05-25T03:54:45;100499.28;;;2.77;100.00
21545;BME280;10933;50.754;11.508;2023-05-25T03:57:11;100496.38;;;2.86;100.00
21545;BME280;10933;50.754;11.508;2023-05-25T03:59:37;100499.63;;;2.97;100.00
21545;BME280;10933;50.754;11.508;2023-05-25T04:02:03;100499.09;;;3.01;100.00
21545;BME280;10933;50.754;11.508;2023-05-25T04:04:30;100500.38;;;3.28;100.00
21545;BME280;10933;50.754;11.508;2023-05-25T04:06:56;100494.81;;;3.67;100.00
21545;BME280;10933;50.754;11.508;2023-05-25T04:09:22;100505.94;;;4.30;100.00
21545;BME280;10933;50.754;11.508;2023-05-25T04:11:49;100501.41;;;4.66;100.00
21545;BME280;10933;50.754;11.508;2023-05-25T04:14:15;100501.56;;;5.22;100.00
21545;BME280;10933;50.754;11.508;2023-05-25T04:16:41;100508.25;;;5.61;100.00
21545;BME280;10933;50.754;11.508;2023-05-25T04:19:07;100503.47;;;5.84;100.00
21545;BME280;10933;50.754;11.508;2023-05-25T04:21:34;100505.97;;;6.27;100.00
21545;BME280;10933;50.754;11.508;2023-05-25T04:24:00;100497.47;;;6.65;100.00
21545;BME280;10933;50.754;11.508;2023-05-25T04:26:26;100494.56;;;6.66;100.00
21545;BME280;10933;50.754;11.508;2023-05-25T04:28:53;100497.94;;;7.01;100.00
21545;BME280;10933;50.754;11.508;2023-05-25T04:31:20;100491.31;;;7.70;100.00
21545;BME280;10933;50.754;11.508;2023-05-25T04:33:46;100487.38;;;7.73;100.00
21545;BME280;10933;50.754;11.508;2023-05-25T04:36:12;100491.94;;;7.59;100.00
21545;BME280;10933;50.754;11.508;2023-05-25T04:38:41;100499.06;;;8.11;100.00
21545;BME280;10933;50.754;11.508;2023-05-25T04:41:15;100503.97;;;8.41;100.00
21545;BME280;10933;50.754;11.508;2023-05-25T04:43:42;100514.94;;;8.33;100.00
21545;BME280;10933;50.754;11.508;2023-05-25T04:46:11;100531.38;;;7.91;100.00
21545;BME280;10933;50.754;11.508;2023-05-25T04:48:39;100531.53;;;8.74;100.00
21545;BME280;10933;50.754;11.508;2023-05-25T04:51:05;100541.91;;;9.84;100.00
21545;BME280;10933;50.754;11.508;2023-05-25T04:53:32;100551.16;;;9.69;100.00
21545;BME280;10933;50.754;11.508;2023-05-25T04:56:00;100578.69;;;9.47;100.00
21545;BME280;10933;50.754;11.508;2023-05-25T04:58:26;100585.31;;;8.74;100.00
21545;BME280;10933;50.754;11.508;2023-05-25T05:00:55;100590.53;;;9.95;100.00
21545;BME280;10933;50.754;11.508;2023-05-25T05:03:21;100611.53;;;9.87;100.00
21545;BME280;10933;50.754;11.508;2023-05-25T05:05:49;100621.16;;;9.76;100.00
21545;BME280;10933;50.754;11.508;2023-05-25T05:08:15;100637.66;;;9.86;100.00
21545;BME280;10933;50.754;11.508;2023-05-25T05:10:41;100639.19;;;10.00;100.00
21545;BME280;10933;50.754;11.508;2023-05-25T05:13:07;100643.00;;;11.28;100.00
21545;BME280;10933;50.754;11.508;2023-05-25T05:15:36;100655.22;;;11.30;100.00
21545;BME280;10933;50.754;11.508;2023-05-25T05:18:02;100654.22;;;11.43;100.00
21545;BME280;10933;50.754;11.508;2023-05-25T05:20:28;100662.66;;;11.35;100.00
21545;BME280;10933;50.754;11.508;2023-05-25T05:22:54;100657.59;;;11.08;100.00
21545;BME280;10933;50.754;11.508;2023-05-25T05:25:21;100668.19;;;11.40;100.00
21545;BME280;10933;50.754;11.508;2023-05-25T05:27:47;100672.50;;;10.38;100.00
21545;BME280;10933;50.754;11.508;2023-05-25T05:30:13;100663.47;;;10.69;100.00
21545;BME280;10933;50.754;11.508;2023-05-25T05:32:39;100658.88;;;10.51;100.00
21545;BME280;10933;50.754;11.508;2023-05-25T05:35:06;100662.41;;;11.66;100.00
21545;BME280;10933;50.754;11.508;2023-05-25T05:37:32;100669.59;;;11.42;100.00
21545;BME280;10933;50.754;11.508;2023-05-25T05:39:58;100687.56;;;11.97;100.00
21545;BME280;10933;50.754;11.508;2023-05-25T05:42:25;100705.06;;;12.06;100.00
21545;BME280;10933;50.754;11.508;2023-05-25T05:44:51;100727.56;;;13.12;100.00
21545;BME280;10933;50.754;11.508;2023-05-25T05:47:17;100739.00;;;12.67;100.00
21545;BME280;10933;50.754;11.508;2023-05-25T05:49:43;100762.31;;;12.68;100.00
21545;BME280;10933;50.754;11.508;2023-05-25T05:52:10;100776.31;;;12.77;100.00
21545;BME280;10933;50.754;11.508;2023-05-25T05:54:36;100783.38;;;12.89;100.00
21545;BME280;10933;50.754;11.508;2023-05-25T05:57:02;100784.22;;;12.78;100.00
21545;BME280;10933;50.754;11.508;2023-05-25T05:59:29;100788.78;;;12.66;100.00
21545;BME280;10933;50.754;11.508;2023-05-25T06:01:55;100794.09;;;10.36;100.00
21545;BME280;10933;50.754;11.508;2023-05-25T06:04:21;100768.53;;;10.39;100.00
21545;BME280;10933;50.754;11.508;2023-05-25T06:06:50;100760.41;;;10.14;100.00
21545;BME280;10933;50.754;11.508;2023-05-25T06:09:16;100739.00;;;9.56;100.00
21545;BME280;10933;50.754;11.508;2023-05-25T06:11:43;100724.13;;;9.47;100.00
21545;BME280;10933;50.754;11.508;2023-05-25T06:14:09;100717.53;;;9.42;100.00
21545;BME280;10933;50.754;11.508;2023-05-25T06:16:36;100712.22;;;9.23;100.00
21545;BME280;10933;50.754;11.508;2023-05-25T06:19:02;100704.00;;;9.11;100.00
21545;BME280;10933;50.754;11.508;2023-05-25T06:21:28;100689.41;;;9.32;100.00
21545;BME280;10933;50.754;11.508;2023-05-25T06:23:54;100688.22;;;9.14;100.00
21545;BME280;10933;50.754;11.508;2023-05-25T06:26:23;100680.09;;;8.76;100.00
21545;BME280;10933;50.754;11.508;2023-05-25T06:28:50;100674.06;;;9.32;100.00
21545;BME280;10933;50.754;11.508;2023-05-25T06:31:16;100674.63;;;9.03;100.00
21545;BME280;10933;50.754;11.508;2023-05-25T06:33:43;100672.78;;;9.03;100.00
21545;BME280;10933;50.754;11.508;2023-05-25T06:36:09;100662.13;;;9.22;100.00
21545;BME280;10933;50.754;11.508;2023-05-25T06:38:36;100658.88;;;10.01;100.00
21545;BME280;10933;50.754;11.508;2023-05-25T06:41:02;100667.91;;;9.88;100.00
21545;BME280;10933;50.754;11.508;2023-05-25T06:43:30;100673.19;;;9.45;100.00
21545;BME280;10933;50.754;11.508;2023-05-25T06:45:57;100669.56;;;9.89;100.00
21545;BME280;10933;50.754;11.508;2023-05-25T06:48:23;100671.78;;;10.24;100.00
21545;BME280;10933;50.754;11.508;2023-05-25T06:50:50;100679.00;;;10.05;100.00
21545;BME280;10933;50.754;11.508;2023-05-25T06:53:16;100675.72;;;9.96;100.00
21545;BME280;10933;50.754;11.508;2023-05-25T06:55:42;100660.94;;;10.06;100.00
21545;BME280;10933;50.754;11.508;2023-05-25T06:58:09;100657.63;;;10.03;100.00
21545;BME280;10933;50.754;11.508;2023-05-25T07:00:36;100665.69;;;10.03;100.00
21545;BME280;10933;50.754;11.508;2023-05-25T07:03:02;100665.22;;;9.88;100.00
21545;BME280;10933;50.754;11.508;2023-05-25T07:05:28;100656.75;;;10.10;100.00
21545;BME280;10933;50.754;11.508;2023-05-25T07:07:54;100652.81;;;10.55;100.00
21545;BME280;10933;50.754;11.508;2023-05-25T07:10:21;100658.13;;;10.62;100.00
21545;BME280;10933;50.754;11.508;2023-05-25T07:12:47;100665.00;;;10.40;100.00
21545;BME280;10933;50.754;11.508;2023-05-25T07:15:13;100658.19;;;10.37;100.00
21545;BME280;10933;50.754;11.508;2023-05-25T07:17:41;100643.81;;;10.43;100.00
21545;BME280;10933;50.754;11.508;2023-05-25T07:20:07;100640.75;;;10.95;100.00
21545;BME280;10933;50.754;11.508;2023-05-25T07:22:33;100640.66;;;11.61;100.00
21545;BME280;10933;50.754;11.508;2023-05-25T07:25:00;100639.69;;;11.86;100.00
21545;BME280;10933;50.754;11.508;2023-05-25T07:27:26;100648.44;;;11.69;100.00
21545;BME280;10933;50.754;11.508;2023-05-25T07:29:52;100654.13;;;11.91;100.00
21545;BME280;10933;50.754;11.508;2023-05-25T07:32:18;100650.50;;;11.97;100.00
21545;BME280;10933;50.754;11.508;2023-05-25T07:34:45;100649.69;;;11.97;100.00
21545;BME280;10933;50.754;11.508;2023-05-25T07:37:11;100646.53;;;12.35;100.00
21545;BME280;10933;50.754;11.508;2023-05-25T07:39:37;100648.88;;;13.07;100.00
21545;BME280;10933;50.754;11.508;2023-05-25T07:42:05;100647.88;;;13.36;100.00
21545;BME280;10933;50.754;11.508;2023-05-25T07:44:31;100645.78;;;13.72;100.00
21545;BME280;10933;50.754;11.508;2023-05-25T07:46:57;100642.66;;;13.80;100.00
21545;BME280;10933;50.754;11.508;2023-05-25T07:49:23;100644.19;;;13.59;100.00
21545;BME280;10933;50.754;11.508;2023-05-25T07:51:50;100651.22;;;14.22;100.00
21545;BME280;10933;50.754;11.508;2023-05-25T07:54:16;100652.56;;;14.97;100.00
21545;BME280;10933;50.754;11.508;2023-05-25T07:56:42;100662.25;;;14.49;100.00
21545;BME280;10933;50.754;11.508;2023-05-25T07:59:08;100667.13;;;13.51;100.00
21545;BME280;10933;50.754;11.508;2023-05-25T08:01:35;100658.88;;;13.06;100.00
21545;BME280;10933;50.754;11.508;2023-05-25T08:04:02;100653.41;;;12.89;100.00
21545;BME280;10933;50.754;11.508;2023-05-25T08:06:28;100651.88;;;12.82;100.00
21545;BME280;10933;50.754;11.508;2023-05-25T08:08:54;100645.25;;;12.37;100.00
21545;BME280;10933;50.754;11.508;2023-05-25T08:11:24;100631.53;;;12.79;100.00
21545;BME280;10933;50.754;11.508;2023-05-25T08:13:51;100645.81;;;12.63;100.00
21545;BME280;10933;50.754;11.508;2023-05-25T08:16:17;100636.06;;;13.02;100.00
21545;BME280;10933;50.754;11.508;2023-05-25T08:18:44;100635.91;;;13.66;100.00
21545;BME280;10933;50.754;11.508;2023-05-25T08:21:11;100641.38;;;13.99;100.00
21545;BME280;10933;50.754;11.508;2023-05-25T08:23:39;100641.13;;;15.44;100.00
21545;BME280;10933;50.754;11.508;2023-05-25T08:26:08;100654.69;;;16.30;100.00
21545;BME280;10933;50.754;11.508;2023-05-25T08:28:34;100663.16;;;17.43;100.00
21545;BME280;10933;50.754;11.508;2023-05-25T08:31:01;100682.25;;;17.48;100.00
21545;BME280;10933;50.754;11.508;2023-05-25T08:33:27;100713.91;;;15.85;100.00
21545;BME280;10933;50.754;11.508;2023-05-25T08:35:53;100699.81;;;14.96;100.00
21545;BME280;10933;50.754;11.508;2023-05-25T08:38:20;100694.94;;;15.64;100.00
21545;BME280;10933;50.754;11.508;2023-05-25T08:41:01;100693.22;;;15.84;100.00
21545;BME280;10933;50.754;11.508;2023-05-25T08:43:28;100693.66;;;15.71;100.00
21545;BME280;10933;50.754;11.508;2023-05-25T08:45:58;100693.13;;;15.25;100.00
21545;BME280;10933;50.754;11.508;2023-05-25T08:48:29;100680.66;;;15.51;100.00
21545;BME280;10933;50.754;11.508;2023-05-25T08:51:05;100681.66;;;15.23;100.00
21545;BME280;10933;50.754;11.508;2023-05-25T08:53:37;100677.41;;;15.54;100.00
21545;BME280;10933;50.754;11.508;2023-05-25T08:56:23;100668.97;;;17.72;100.00
21545;BME280;10933;50.754;11.508;2023-05-25T08:59:17;100703.59;;;16.52;100.00
21545;BME280;10933;50.754;11.508;2023-05-25T09:01:51;100693.69;;;16.03;100.00
21545;BME280;10933;50.754;11.508;2023-05-25T09:04:20;100686.28;;;15.45;100.00
21545;BME280;10933;50.754;11.508;2023-05-25T09:06:48;100681.81;;;16.57;100.00
21545;BME280;10933;50.754;11.508;2023-05-25T09:09:15;100675.22;;;18.49;100.00
21545;BME280;10933;50.754;11.508;2023-05-25T09:11:43;100684.50;;;19.87;100.00
21545;BME280;10933;50.754;11.508;2023-05-25T09:14:10;100703.91;;;18.82;100.00
21545;BME280;10933;50.754;11.508;2023-05-25T09:16:37;100619.81;;;19.62;100.00
21545;BME280;10933;50.754;11.508;2023-05-25T09:19:04;100551.13;;;19.54;100.00
21545;BME280;10933;50.754;11.508;2023-05-25T09:21:30;100547.03;;;18.73;100.00
21545;BME280;10933;50.754;11.508;2023-05-25T09:23:58;100578.41;;;19.69;100.00
21545;BME280;10933;50.754;11.508;2023-05-25T09:26:24;100600.25;;;20.37;100.00
21545;BME280;10933;50.754;11.508;2023-05-25T09:28:51;100627.25;;;20.20;100.00
21545;BME280;10933;50.754;11.508;2023-05-25T09:31:18;100620.59;;;20.60;100.00
21545;BME280;10933;50.754;11.508;2023-05-25T09:33:45;100655.13;;;20.27;100.00
21545;BME280;10933;50.754;11.508;2023-05-25T09:36:12;100636.63;;;19.40;100.00
21545;BME280;10933;50.754;11.508;2023-05-25T09:38:41;100616.09;;;20.40;100.00
21545;BME280;10933;50.754;11.508;2023-05-25T09:41:07;100613.88;;;20.47;100.00
21545;BME280;10933;50.754;11.508;2023-05-25T09:43:34;100585.00;;;20.55;100.00
21545;BME280;10933;50.754;11.508;2023-05-25T09:46:00;100618.81;;;20.69;100.00
21545;BME280;10933;50.754;11.508;2023-05-25T09:48:26;100613.31;;;20.93;100.00
21545;BME280;10933;50.754;11.508;2023-05-25T09:50:54;100512.56;;;22.43;100.00
21545;BME280;10933;50.754;11.508;2023-05-25T09:53:20;100539.88;;;23.39;100.00
21545;BME280;10933;50.754;11.508;2023-05-25T09:55:51;100511.44;;;22.16;100.00
21545;BME280;10933;50.754;11.508;2023-05-25T09:58:17;100498.00;;;21.55;100.00
21545;BME280;10933;50.754;11.508;2023-05-25T10:00:43;100489.50;;;21.19;100.00
21545;BME280;10933;50.754;11.508;2023-05-25T10:03:10;100444.91;;;20.56;100.00
21545;BME280;10933;50.754;11.508;2023-05-25T10:05:39;100464.97;;;20.52;100.00
21545;BME280;10933;50.754;11.508;2023-05-25T10:08:07;100470.66;;;21.31;100.00
21545;BME280;10933;50.754;11.508;2023-05-25T10:10:34;100528.25;;;22.15;100.00
21545;BME280;10933;50.754;11.508;2023-05-25T10:13:01;100474.72;;;18.40;100.00
21545;BME280;10933;50.754;11.508;2023-05-25T10:15:29;100425.81;;;17.58;100.00
21545;BME280;10933;50.754;11.508;2023-05-25T10:17:57;100393.34;;;19.15;100.00
21545;BME280;10933;50.754;11.508;2023-05-25T10:20:26;100372.19;;;20.40;100.00
21545;BME280;10933;50.754;11.508;2023-05-25T10:23:09;100427.13;;;20.73;100.00
21545;BME280;10933;50.754;11.508;2023-05-25T10:25:51;100432.78;;;20.39;100.00
21545;BME280;10933;50.754;11.508;2023-05-25T10:28:28;100431.56;;;21.39;100.00
21545;BME280;10933;50.754;11.508;2023-05-25T10:30:59;100350.81;;;20.94;100.00
21545;BME280;10933;50.754;11.508;2023-05-25T10:33:27;100287.25;;;21.05;100.00
21545;BME280;10933;50.754;11.508;2023-05-25T10:35:54;100299.97;;;20.69;100.00
21545;BME280;10933;50.754;11.508;2023-05-25T10:38:21;100293.97;;;20.99;100.00
21545;BME280;10933;50.754;11.508;2023-05-25T10:40:53;100292.53;;;21.02;100.00
21545;BME280;10933;50.754;11.508;2023-05-25T10:43:19;100288.53;;;21.27;100.00
21545;BME280;10933;50.754;11.508;2023-05-25T10:45:47;100314.16;;;21.36;100.00
21545;BME280;10933;50.754;11.508;2023-05-25T10:48:15;100353.78;;;22.62;100.00
21545;BME280;10933;50.754;11.508;2023-05-25T10:50:41;100357.47;;;21.06;100.00
21545;BME280;10933;50.754;11.508;2023-05-25T10:53:10;100327.31;;;20.36;100.00
21545;BME280;10933;50.754;11.508;2023-05-25T10:56:01;100304.69;;;20.49;100.00
21545;BME280;10933;50.754;11.508;2023-05-25T10:58:29;100327.53;;;21.24;100.00
21545;BME280;10933;50.754;11.508;2023-05-25T11:06:15;100351.97;;;21.25;100.00
21545;BME280;10933;50.754;11.508;2023-05-25T11:08:55;100353.59;;;22.09;100.00
21545;BME280;10933;50.754;11.508;2023-05-25T11:11:59;100390.88;;;22.73;100.00
21545;BME280;10933;50.754;11.508;2023-05-25T11:17:06;100370.00;;;21.12;100.00
21545;BME280;10933;50.754;11.508;2023-05-25T11:19:51;100371.81;;;21.36;100.00
21545;BME280;10933;50.754;11.508;2023-05-25T11:22:34;100389.91;;;21.37;100.00
21545;BME280;10933;50.754;11.508;2023-05-25T11:25:02;100408.13;;;21.88;100.00
21545;BME280;10933;50.754;11.508;2023-05-25T11:27:47;100415.34;;;22.75;100.00
21545;BME280;10933;50.754;11.508;2023-05-25T11:30:17;100415.63;;;22.51;100.00
21545;BME280;10933;50.754;11.508;2023-05-25T11:32:48;100383.63;;;20.85;100.00
21545;BME280;10933;50.754;11.508;2023-05-25T11:35:15;100371.41;;;21.84;100.00
21545;BME280;10933;50.754;11.508;2023-05-25T11:37:42;100380.88;;;21.50;100.00
21545;BME280;10933;50.754;11.508;2023-05-25T11:40:14;100369.06;;;21.36;100.00
21545;BME280;10933;50.754;11.508;2023-05-25T11:42:44;100367.53;;;20.78;100.00
21545;BME280;10933;50.754;11.508;2023-05-25T11:45:14;100327.16;;;21.44;100.00
21545;BME280;10933;50.754;11.508;2023-05-25T11:47:40;100342.13;;;21.79;100.00
21545;BME280;10933;50.754;11.508;2023-05-25T11:50:06;100347.50;;;21.98;100.00
21545;BME280;10933;50.754;11.508;2023-05-25T11:52:32;100360.63;;;22.51;100.00
21545;BME280;10933;50.754;11.508;2023-05-25T11:54:59;100365.41;;;23.26;100.00
21545;BME280;10933;50.754;11.508;2023-05-25T11:57:25;100379.97;;;22.82;100.00
21545;BME280;10933;50.754;11.508;2023-05-25T11:59:56;100373.34;;;21.69;100.00
21545;BME280;10933;50.754;11.508;2023-05-25T12:02:25;100374.78;;;22.80;100.00
21545;BME280;10933;50.754;11.508;2023-05-25T12:04:55;100379.22;;;22.18;100.00
21545;BME280;10933;50.754;11.508;2023-05-25T12:07:22;100372.66;;;22.41;100.00
21545;BME280;10933;50.754;11.508;2023-05-25T12:09:48;100380.47;;;22.84;100.00
21545;BME280;10933;50.754;11.508;2023-05-25T12:12:14;100384.00;;;23.52;100.00
21545;BME280;10933;50.754;11.508;2023-05-25T12:14:50;100391.19;;;22.72;100.00
21545;BME280;10933;50.754;11.508;2023-05-25T12:17:18;100363.50;;;22.68;100.00
21545;BME280;10933;50.754;11.508;2023-05-25T12:19:46;100381.38;;;24.60;100.00
21545;BME280;10933;50.754;11.508;2023-05-25T12:22:13;100392.16;;;24.05;100.00
21545;BME280;10933;50.754;11.508;2023-05-25T12:24:39;100394.84;;;24.53;100.00
21545;BME280;10933;50.754;11.508;2023-05-25T12:27:17;100388.50;;;23.16;100.00
21545;BME280;10933;50.754;11.508;2023-05-25T12:29:47;100371.50;;;21.51;100.00
21545;BME280;10933;50.754;11.508;2023-05-25T12:32:13;100357.28;;;21.49;100.00
21545;BME280;10933;50.754;11.508;2023-05-25T12:34:40;100360.19;;;21.25;100.00
21545;BME280;10933;50.754;11.508;2023-05-25T12:37:17;100353.94;;;21.20;100.00
21545;BME280;10933;50.754;11.508;2023-05-25T12:39:47;100351.53;;;20.67;100.00
21545;BME280;10933;50.754;11.508;2023-05-25T12:42:14;100348.03;;;20.80;100.00
21545;BME280;10933;50.754;11.508;2023-05-25T12:44:42;100337.56;;;21.47;100.00
21545;BME280;10933;50.754;11.508;2023-05-25T12:49:37;100341.91;;;21.76;100.00
21545;BME280;10933;50.754;11.508;2023-05-25T12:52:04;100351.53;;;21.32;100.00
21545;BME280;10933;50.754;11.508;2023-05-25T12:54:44;100349.47;;;21.10;100.00
21545;BME280;10933;50.754;11.508;2023-05-25T12:57:16;100348.59;;;20.44;100.00